createdAt,value
2018-07-02T00:02:14.503Z,2.63
2018-07-02T00:04:42.073Z,3.13
2018-07-02T00:07:13.434Z,3.23
2018-07-02T00:09:41.061Z,2.60
2018-07-02T00:12:08.663Z,2.93
2018-07-02T00:14:36.297Z,3.60
2018-07-02T00:17:03.985Z,2.97
2018-07-02T00:19:31.631Z,3.80
2018-07-02T00:21:59.220Z,3.33
2018-07-02T00:24:26.853Z,3.63
2018-07-02T00:26:54.513Z,2.90
2018-07-02T00:29:22.210Z,3.10
2018-07-02T00:31:49.844Z,3.60
2018-07-02T00:34:17.405Z,3.33
2018-07-02T00:36:44.984Z,3.60
2018-07-02T00:39:13.057Z,3.27
2018-07-02T00:41:41.713Z,3.40
2018-07-02T00:44:09.289Z,3.57
2018-07-02T00:46:36.893Z,3.57
2018-07-02T00:49:04.824Z,3.93
2018-07-02T00:51:32.698Z,3.30
2018-07-02T00:54:00.258Z,3.80
2018-07-02T00:56:27.882Z,4.03
2018-07-02T00:58:55.473Z,4.00
2018-07-02T01:01:25.877Z,3.83
2018-07-02T01:03:54.152Z,3.37
2018-07-02T01:06:21.740Z,3.40
2018-07-02T01:08:49.325Z,3.70
2018-07-02T01:11:16.888Z,3.63
2018-07-02T01:13:44.477Z,3.77
2018-07-02T01:16:12.078Z,3.70
2018-07-02T01:18:39.656Z,3.90
2018-07-02T01:21:07.236Z,3.67
2018-07-02T01:23:34.792Z,3.60
2018-07-02T01:26:02.397Z,3.07
2018-07-02T01:28:30.050Z,3.37
2018-07-02T01:30:57.637Z,3.33
2018-07-02T01:33:25.237Z,3.27
2018-07-02T01:35:52.803Z,3.07
2018-07-02T01:38:20.350Z,3.07
2018-07-02T01:40:47.925Z,3.03
2018-07-02T01:43:15.485Z,2.73
2018-07-02T01:45:43.061Z,3.33
2018-07-02T01:48:10.670Z,3.10
2018-07-02T01:50:38.249Z,3.27
2018-07-02T01:53:05.843Z,3.10
2018-07-02T01:55:33.480Z,3.03
2018-07-02T01:58:01.070Z,2.63
2018-07-02T02:00:28.633Z,3.17
2018-07-02T02:02:56.173Z,3.20
2018-07-02T02:05:23.757Z,3.37
2018-07-02T02:07:51.308Z,2.77
2018-07-02T02:10:18.868Z,3.40
2018-07-02T02:12:46.433Z,2.83
2018-07-02T02:15:14.005Z,3.30
2018-07-02T02:17:41.571Z,2.70
2018-07-02T02:20:09.132Z,2.60
2018-07-02T02:22:36.705Z,2.90
2018-07-02T02:25:05.085Z,2.90
2018-07-02T02:27:32.666Z,2.37
2018-07-02T02:30:00.264Z,3.03
2018-07-02T02:32:27.866Z,2.67
2018-07-02T02:34:55.461Z,2.60
2018-07-02T02:37:23.037Z,2.57
2018-07-02T02:39:50.621Z,2.53
2018-07-02T02:42:18.202Z,2.80
2018-07-02T02:44:45.800Z,2.70
2018-07-02T02:47:13.277Z,2.50
2018-07-02T02:49:40.856Z,2.97
2018-07-02T02:52:08.437Z,2.50
2018-07-02T02:54:35.986Z,2.53
2018-07-02T02:57:03.563Z,2.40
2018-07-02T02:59:31.136Z,2.80
2018-07-02T03:01:58.737Z,2.87
2018-07-02T03:04:26.348Z,2.40
2018-07-02T03:06:53.949Z,2.33
2018-07-02T03:09:21.493Z,2.47
2018-07-02T03:11:48.977Z,2.30
2018-07-02T03:14:16.583Z,2.23
2018-07-02T03:16:44.194Z,2.70
2018-07-02T03:19:11.772Z,2.60
2018-07-02T03:21:39.403Z,2.03
2018-07-02T03:24:06.988Z,2.10
2018-07-02T03:26:34.566Z,3.10
2018-07-02T03:29:02.181Z,2.40
2018-07-02T03:31:29.728Z,2.27
2018-07-02T03:33:57.281Z,3.00
2018-07-02T03:36:24.865Z,2.40
2018-07-02T03:38:52.449Z,2.10
2018-07-02T03:41:20.022Z,2.20
2018-07-02T03:43:47.597Z,2.30
2018-07-02T03:46:15.176Z,2.07
2018-07-02T03:48:42.760Z,2.03
2018-07-02T03:51:10.336Z,2.00
2018-07-02T03:53:37.908Z,1.70
2018-07-02T03:56:05.506Z,1.80
2018-07-02T03:58:32.964Z,1.80
2018-07-02T04:01:00.503Z,1.83
2018-07-02T04:03:28.073Z,2.07
2018-07-02T04:05:55.681Z,2.20
2018-07-02T04:08:23.265Z,2.17
2018-07-02T04:10:50.837Z,2.03
2018-07-02T04:13:18.482Z,2.13
2018-07-02T04:15:46.045Z,2.43
2018-07-02T04:18:13.588Z,2.03
2018-07-02T04:20:41.166Z,1.93
2018-07-02T04:23:08.741Z,2.10
2018-07-02T04:25:36.312Z,2.10
2018-07-02T04:28:03.886Z,2.23
2018-07-02T04:30:31.462Z,1.93
2018-07-02T04:32:59.059Z,1.80
2018-07-02T04:35:26.629Z,2.03
2018-07-02T04:37:54.242Z,1.70
2018-07-02T04:40:21.859Z,1.77
2018-07-02T04:42:49.449Z,1.80
2018-07-02T04:45:17.117Z,1.70
2018-07-02T04:47:44.775Z,1.90
2018-07-02T04:50:12.324Z,1.93
2018-07-02T04:52:39.969Z,1.73
2018-07-02T04:55:07.637Z,1.60
2018-07-02T04:57:35.306Z,1.37
2018-07-02T05:00:02.974Z,1.60
2018-07-02T05:02:30.566Z,1.73
2018-07-02T05:04:58.142Z,1.33
2018-07-02T05:07:25.722Z,1.37
2018-07-02T05:09:53.462Z,1.70
2018-07-02T05:12:20.907Z,1.73
2018-07-02T05:14:48.546Z,1.47
2018-07-02T05:17:16.106Z,2.00
2018-07-02T05:19:43.689Z,1.33
2018-07-02T05:22:11.270Z,1.60
2018-07-02T05:24:38.846Z,1.60
2018-07-02T05:27:06.390Z,1.70
2018-07-02T05:32:08.380Z,1.47
2018-07-02T05:34:35.933Z,1.63
2018-07-02T05:37:03.531Z,1.33
2018-07-02T05:39:31.020Z,1.60
2018-07-02T05:41:58.606Z,1.67
2018-07-02T05:44:26.213Z,1.27
2018-07-02T05:46:53.870Z,1.47
2018-07-02T05:49:21.625Z,1.37
2018-07-02T05:51:49.261Z,1.27
2018-07-02T05:54:16.840Z,2.20
2018-07-02T05:56:45.227Z,1.23
2018-07-02T05:59:12.755Z,1.30
2018-07-02T06:01:40.368Z,2.20
2018-07-02T06:04:07.945Z,1.07
2018-07-02T06:06:35.513Z,1.13
2018-07-02T06:09:06.289Z,1.30
2018-07-02T06:11:33.961Z,1.60
2018-07-02T06:14:01.569Z,2.10
2018-07-02T06:16:29.143Z,1.50
2018-07-02T06:18:56.705Z,1.83
2018-07-02T06:21:24.265Z,0.93
2018-07-02T06:23:51.836Z,1.30
2018-07-02T06:26:19.470Z,1.30
2018-07-02T06:28:47.009Z,1.40
2018-07-02T06:31:14.609Z,1.20
2018-07-02T06:33:42.147Z,1.30
2018-07-02T06:36:09.713Z,1.37
2018-07-02T06:38:37.289Z,1.97
2018-07-02T06:41:04.845Z,1.40
2018-07-02T06:43:32.427Z,1.33
2018-07-02T06:46:00.032Z,1.47
2018-07-02T06:48:27.695Z,1.20
2018-07-02T06:50:55.255Z,1.30
2018-07-02T06:53:22.860Z,1.30
2018-07-02T06:55:50.365Z,1.47
2018-07-02T06:58:17.968Z,1.93
2018-07-02T07:00:45.576Z,1.40
2018-07-02T07:03:13.132Z,1.20
2018-07-02T07:05:40.733Z,1.10
2018-07-02T07:08:08.341Z,1.50
2018-07-02T07:10:35.885Z,1.43
2018-07-02T07:13:03.515Z,1.50
2018-07-02T07:15:31.151Z,1.40
2018-07-02T07:17:58.685Z,1.03
2018-07-02T07:20:26.265Z,1.57
2018-07-02T07:22:53.858Z,1.60
2018-07-02T07:25:21.428Z,1.13
2018-07-02T07:27:48.969Z,1.47
2018-07-02T07:30:16.515Z,1.53
2018-07-02T07:32:44.108Z,1.30
2018-07-02T07:35:11.687Z,1.10
2018-07-02T07:37:40.605Z,1.50
2018-07-02T07:40:08.278Z,1.23
2018-07-02T07:42:36.575Z,1.30
2018-07-02T07:45:12.295Z,1.87
2018-07-02T07:47:39.926Z,1.20
2018-07-02T07:50:07.473Z,1.45
2018-07-02T07:52:35.038Z,1.60
2018-07-02T07:55:02.676Z,1.80
2018-07-02T07:57:30.249Z,1.30
2018-07-02T07:59:57.821Z,1.50
2018-07-02T08:02:25.452Z,1.45
2018-07-02T08:04:53.030Z,1.52
2018-07-02T08:07:20.712Z,1.90
2018-07-02T08:09:48.316Z,1.67
2018-07-02T08:12:16.420Z,1.87
2018-07-02T08:14:44.013Z,1.65
2018-07-02T08:17:11.615Z,1.55
2018-07-02T08:19:39.209Z,1.50
2018-07-02T08:22:07.225Z,1.20
2018-07-02T08:24:34.801Z,1.62
2018-07-02T08:27:02.402Z,1.80
2018-07-02T08:29:29.988Z,1.45
2018-07-02T08:31:57.565Z,1.92
2018-07-02T08:34:25.167Z,1.70
2018-07-02T08:36:53.038Z,1.57
2018-07-02T08:39:20.643Z,1.30
2018-07-02T08:41:48.288Z,1.65
2018-07-02T08:44:15.852Z,1.92
2018-07-02T08:46:43.535Z,2.00
2018-07-02T08:49:11.049Z,1.50
2018-07-02T08:51:38.651Z,1.62
2018-07-02T08:54:06.196Z,1.80
2018-07-02T08:56:33.838Z,1.60
2018-07-02T08:59:01.392Z,1.60
2018-07-02T09:01:28.953Z,1.22
2018-07-02T09:03:56.520Z,1.42
2018-07-02T09:06:24.159Z,1.50
2018-07-02T09:08:51.724Z,1.35
2018-07-02T09:11:19.292Z,1.50
2018-07-02T09:13:46.845Z,1.92
2018-07-02T09:16:14.486Z,1.70
2018-07-02T09:18:41.941Z,1.70
2018-07-02T09:21:09.562Z,1.60
2018-07-02T09:23:37.121Z,1.47
2018-07-02T09:26:05.002Z,1.70
2018-07-02T09:28:32.634Z,1.67
2018-07-02T09:31:00.250Z,1.77
2018-07-02T09:33:34.557Z,1.55
2018-07-02T09:36:02.214Z,1.47
2018-07-02T09:38:29.830Z,1.67
2018-07-02T09:40:57.458Z,1.75
2018-07-02T09:43:25.030Z,2.02
2018-07-02T09:45:52.646Z,1.70
2018-07-02T09:48:20.209Z,2.00
2018-07-02T09:50:47.832Z,1.80
2018-07-02T09:53:15.405Z,1.60
2018-07-02T09:55:42.985Z,1.80
2018-07-02T09:58:10.565Z,1.80
2018-07-02T10:00:38.243Z,1.62
2018-07-02T10:03:07.335Z,1.57
2018-07-02T10:05:35.318Z,1.90
2018-07-02T10:08:02.934Z,1.70
2018-07-02T10:10:30.524Z,1.52
2018-07-02T10:12:58.159Z,1.98
2018-07-02T10:15:25.959Z,1.70
2018-07-02T10:17:53.650Z,1.65
2018-07-02T10:20:21.263Z,2.27
2018-07-02T10:22:48.861Z,2.30
2018-07-02T10:25:16.454Z,2.12
2018-07-02T10:27:44.007Z,1.85
2018-07-02T10:30:11.633Z,2.00
2018-07-02T10:32:39.194Z,1.57
2018-07-02T10:35:06.808Z,1.98
2018-07-02T10:37:34.381Z,1.90
2018-07-02T10:40:02.018Z,1.60
2018-07-02T10:42:29.586Z,1.95
2018-07-02T10:44:57.193Z,1.62
2018-07-02T10:47:24.748Z,1.50
2018-07-02T10:49:52.992Z,1.50
2018-07-02T10:52:20.592Z,1.70
2018-07-02T10:54:48.328Z,1.75
2018-07-02T10:57:16.170Z,1.67
2018-07-02T10:59:43.767Z,1.82
2018-07-02T11:02:11.401Z,1.98
2018-07-02T11:04:39.067Z,1.52
2018-07-02T11:07:06.690Z,1.60
2018-07-02T11:09:34.277Z,1.70
2018-07-02T11:12:01.764Z,1.47
2018-07-02T11:14:29.350Z,2.02
2018-07-02T11:16:56.978Z,1.40
2018-07-02T11:19:24.577Z,1.47
2018-07-02T11:21:52.239Z,1.17
2018-07-02T11:24:19.901Z,1.32
2018-07-02T11:26:47.521Z,1.60
2018-07-02T11:29:15.177Z,1.90
2018-07-02T11:31:42.734Z,1.90
2018-07-02T11:34:10.362Z,1.70
2018-07-02T11:36:37.933Z,1.75
2018-07-02T11:39:07.902Z,2.05
2018-07-02T11:47:16.802Z,1.20
2018-07-02T11:49:44.538Z,1.15
2018-07-02T11:52:11.973Z,1.30
2018-07-02T11:54:39.617Z,1.40
2018-07-02T11:57:07.240Z,1.37
2018-07-02T11:59:34.839Z,1.10
2018-07-02T12:02:02.505Z,1.40
2018-07-02T12:04:30.116Z,1.55
2018-07-02T12:06:57.765Z,1.10
2018-07-02T12:09:25.423Z,1.20
2018-07-02T12:11:53.068Z,1.27
2018-07-02T12:14:20.671Z,1.30
2018-07-02T12:16:48.339Z,1.20
2018-07-02T12:19:15.960Z,1.07
2018-07-02T12:21:43.565Z,1.20
2018-07-02T12:24:11.211Z,0.90
2018-07-02T12:26:38.861Z,1.20
2018-07-02T12:29:06.468Z,1.40
2018-07-02T12:31:34.109Z,1.40
2018-07-02T12:34:01.762Z,1.40
2018-07-02T12:36:29.539Z,1.12
2018-07-02T12:38:57.190Z,1.17
2018-07-02T12:41:24.853Z,1.40
2018-07-02T12:43:52.713Z,1.32
2018-07-02T12:46:20.377Z,1.20
2018-07-02T12:48:48.028Z,1.20
2018-07-02T12:51:15.624Z,0.95
2018-07-02T12:53:43.272Z,1.25
2018-07-02T12:56:10.920Z,1.10
2018-07-02T12:58:38.554Z,1.45
2018-07-02T13:01:06.213Z,1.22
2018-07-02T13:03:33.834Z,1.37
2018-07-02T13:06:01.519Z,1.13
2018-07-02T13:08:29.201Z,1.30
2018-07-02T13:10:56.880Z,1.05
2018-07-02T13:13:24.545Z,1.30
2018-07-02T13:15:52.213Z,1.37
2018-07-02T13:18:19.922Z,1.12
2018-07-02T13:20:47.582Z,1.20
2018-07-02T13:23:15.280Z,1.32
2018-07-02T13:25:42.904Z,1.37
2018-07-02T13:28:10.533Z,1.10
2018-07-02T13:30:38.137Z,1.02
2018-07-02T13:33:05.787Z,1.40
2018-07-02T13:35:33.465Z,1.37
2018-07-02T13:38:01.090Z,1.30
2018-07-02T13:40:28.745Z,1.12
2018-07-02T13:42:56.381Z,0.97
2018-07-02T13:45:24.037Z,1.35
2018-07-02T13:47:51.707Z,1.30
2018-07-02T13:50:19.306Z,1.10
2018-07-02T13:52:46.972Z,1.20
2018-07-02T13:55:14.658Z,1.20
2018-07-02T13:57:42.345Z,1.03
2018-07-02T14:00:10.082Z,0.97
2018-07-02T14:02:37.726Z,1.03
2018-07-02T14:05:05.534Z,1.07
2018-07-02T14:07:33.194Z,1.02
2018-07-02T14:10:01.178Z,1.40
2018-07-02T14:12:29.060Z,1.20
2018-07-02T14:14:57.239Z,1.20
2018-07-02T14:17:25.177Z,1.10
2018-07-02T14:19:53.270Z,1.50
2018-07-02T14:22:21.357Z,1.00
2018-07-02T14:24:50.314Z,1.10
2018-07-02T14:27:18.351Z,1.20
2018-07-02T14:29:46.315Z,1.00
2018-07-02T14:32:14.250Z,1.10
2018-07-02T14:34:42.178Z,1.00
2018-07-02T14:37:10.075Z,1.37
2018-07-02T14:39:38.068Z,1.07
2018-07-02T14:42:06.281Z,1.17
2018-07-02T14:44:34.267Z,1.60
2018-07-02T14:47:02.356Z,1.53
2018-07-02T14:49:30.349Z,1.47
2018-07-02T14:51:58.402Z,1.20
2018-07-02T14:54:26.285Z,1.17
2018-07-02T14:56:54.422Z,1.70
2018-07-02T14:59:22.486Z,1.30
2018-07-02T15:01:50.486Z,1.30
2018-07-02T15:04:18.456Z,1.43
2018-07-02T15:06:46.457Z,1.40
2018-07-02T15:09:14.519Z,1.43
2018-07-02T15:11:42.995Z,1.47
2018-07-02T15:14:10.882Z,1.80
2018-07-02T15:16:38.936Z,1.40
2018-07-02T15:19:07.505Z,1.50
2018-07-02T15:21:35.410Z,1.60
2018-07-02T15:24:03.357Z,1.30
2018-07-02T15:26:31.257Z,1.60
2018-07-02T15:28:59.247Z,1.57
2018-07-02T15:31:27.202Z,1.30
2018-07-02T15:33:55.223Z,1.13
2018-07-02T15:36:23.289Z,1.07
2018-07-02T15:38:51.299Z,1.40
2018-07-02T15:41:19.230Z,1.50
2018-07-02T15:43:47.410Z,1.23
2018-07-02T15:46:15.330Z,1.43
2018-07-02T15:48:43.308Z,1.10
2018-07-02T15:51:11.290Z,1.43
2018-07-02T15:53:39.350Z,1.60
2018-07-02T15:56:07.726Z,1.30
2018-07-02T15:58:35.635Z,1.83
2018-07-02T16:01:03.724Z,1.40
2018-07-02T16:03:31.701Z,1.00
2018-07-02T16:05:59.869Z,2.80
2018-07-02T16:08:27.775Z,1.20
2018-07-02T16:10:55.778Z,1.00
2018-07-02T16:13:23.697Z,1.27
2018-07-02T16:15:51.952Z,1.70
2018-07-02T16:18:20.338Z,1.20
2018-07-02T16:20:48.218Z,1.17
2018-07-02T16:23:16.357Z,1.10
2018-07-02T16:25:44.434Z,1.70
2018-07-02T16:28:12.560Z,1.57
2018-07-02T16:30:40.574Z,1.60
2018-07-02T16:33:08.634Z,1.33
2018-07-02T16:35:36.633Z,2.00
2018-07-02T16:38:05.027Z,1.20
2018-07-02T16:40:33.032Z,1.40
2018-07-02T16:43:01.056Z,1.00
2018-07-02T16:45:29.009Z,1.30
2018-07-02T16:47:56.950Z,1.70
2018-07-02T16:50:24.893Z,1.53
2018-07-02T16:52:52.878Z,1.73
2018-07-02T16:55:20.979Z,1.40
2018-07-02T16:57:49.124Z,1.70
2018-07-02T17:00:17.229Z,1.30
2018-07-02T17:02:45.231Z,1.43
2018-07-02T17:05:13.235Z,1.30
2018-07-02T17:07:41.353Z,1.10
2018-07-02T17:10:09.403Z,1.27
2018-07-02T17:12:37.293Z,1.13
2018-07-02T17:15:06.056Z,1.13
2018-07-02T17:17:34.029Z,1.13
2018-07-02T17:20:01.793Z,1.20
2018-07-02T17:22:29.911Z,1.37
2018-07-02T17:24:58.625Z,1.40
2018-07-02T17:27:27.060Z,1.57
2018-07-02T17:29:55.170Z,1.60
2018-07-02T17:32:23.260Z,1.47
2018-07-02T17:34:51.208Z,1.70
2018-07-02T17:37:19.173Z,1.73
2018-07-02T17:39:47.356Z,1.50
2018-07-02T17:42:15.446Z,1.40
2018-07-02T17:44:43.380Z,1.57
2018-07-02T17:47:11.313Z,1.70
2018-07-02T17:49:39.272Z,1.80
2018-07-02T17:52:07.294Z,1.50
2018-07-02T17:54:35.297Z,1.70
2018-07-02T17:57:03.382Z,1.27
2018-07-02T17:59:31.394Z,1.40
2018-07-02T18:01:59.374Z,1.53
2018-07-02T18:04:27.274Z,1.37
2018-07-02T18:06:55.212Z,1.53
2018-07-02T18:09:23.220Z,1.10
2018-07-02T18:11:51.220Z,1.30
2018-07-02T18:14:19.147Z,1.20
2018-07-02T18:16:47.199Z,1.60
2018-07-02T18:19:15.213Z,1.33
2018-07-02T18:21:49.509Z,1.30
2018-07-02T18:24:17.574Z,1.93
2018-07-02T18:26:45.585Z,2.00
2018-07-02T18:29:13.535Z,1.50
2018-07-02T18:31:41.530Z,1.50
2018-07-02T18:34:09.525Z,1.13
2018-07-02T18:36:37.411Z,2.00
2018-07-02T18:39:08.842Z,1.77
2018-07-02T18:41:36.965Z,1.60
2018-07-02T18:44:05.210Z,1.77
2018-07-02T18:46:33.184Z,1.40
2018-07-02T18:49:01.242Z,1.30
2018-07-02T18:51:29.178Z,1.60
2018-07-02T18:53:57.275Z,1.63
2018-07-02T18:56:25.297Z,1.60
2018-07-02T18:58:57.104Z,1.30
2018-07-02T19:01:24.816Z,1.17
2018-07-02T19:03:52.875Z,1.40
2018-07-02T19:06:20.868Z,1.40
2018-07-02T19:08:48.798Z,1.60
2018-07-02T19:11:16.968Z,1.50
2018-07-02T19:13:44.904Z,1.10
2018-07-02T19:16:12.991Z,1.20
2018-07-02T19:18:41.053Z,1.17
2018-07-02T19:21:09.020Z,1.30
2018-07-02T19:23:37.045Z,1.20
2018-07-02T19:26:05.085Z,1.03
2018-07-02T19:28:33.170Z,1.60
2018-07-02T19:31:01.077Z,1.30
2018-07-02T19:33:29.085Z,1.10
2018-07-02T19:35:57.166Z,1.00
2018-07-02T19:38:25.126Z,1.20
2018-07-02T19:40:53.120Z,1.37
2018-07-02T19:43:21.340Z,1.10
2018-07-02T19:45:49.265Z,1.30
2018-07-02T19:48:17.197Z,1.30
2018-07-02T19:50:45.140Z,1.10
2018-07-02T19:53:13.126Z,1.03
2018-07-02T19:55:41.233Z,1.00
2018-07-02T19:58:09.261Z,1.10
2018-07-02T20:00:37.204Z,1.10
2018-07-02T20:03:05.368Z,1.00
2018-07-02T20:05:33.376Z,0.90
2018-07-02T20:08:01.310Z,1.33
2018-07-02T20:10:29.297Z,1.37
2018-07-02T20:12:57.743Z,1.03
2018-07-02T20:15:25.768Z,1.13
2018-07-02T20:17:55.209Z,1.23
2018-07-02T20:20:22.962Z,1.20
2018-07-02T20:22:51.156Z,1.40
2018-07-02T20:25:19.097Z,1.30
2018-07-02T20:27:47.301Z,1.03
2018-07-02T20:30:15.353Z,1.17
2018-07-02T20:32:43.279Z,1.27
2018-07-02T20:35:11.369Z,1.10
2018-07-02T20:37:39.303Z,1.33
2018-07-02T20:40:09.390Z,1.17
2018-07-02T20:42:37.339Z,1.30
2018-07-02T20:45:06.191Z,1.27
2018-07-02T20:47:34.277Z,1.10
2018-07-02T20:50:02.081Z,1.53
2018-07-02T20:52:38.013Z,1.40
2018-07-02T20:55:05.982Z,1.60
2018-07-02T20:57:34.005Z,1.40
2018-07-02T21:00:02.254Z,1.67
2018-07-02T21:02:30.175Z,1.20
2018-07-02T21:04:58.436Z,1.53
2018-07-02T21:07:26.231Z,2.13
2018-07-02T21:10:01.564Z,1.60
2018-07-02T21:12:36.026Z,1.67
2018-07-02T21:15:04.504Z,1.60
2018-07-02T21:17:32.466Z,1.57
2018-07-02T21:20:00.534Z,2.00
2018-07-02T21:22:28.562Z,1.70
2018-07-02T21:24:56.581Z,1.80
2018-07-02T21:27:24.591Z,1.87
2018-07-02T21:29:52.523Z,1.70
2018-07-02T21:32:20.425Z,1.47
2018-07-02T21:34:48.354Z,1.90
2018-07-02T21:37:16.274Z,1.80
2018-07-02T21:39:44.276Z,1.70
2018-07-02T21:42:12.263Z,1.77
2018-07-02T21:44:40.218Z,1.80
2018-07-02T21:47:08.102Z,1.40
2018-07-02T21:49:36.091Z,1.57
2018-07-02T21:52:04.059Z,1.60
2018-07-02T21:54:31.996Z,1.30
2018-07-02T21:57:00.037Z,1.17
2018-07-02T21:59:27.964Z,1.40
2018-07-02T22:01:55.908Z,1.60
2018-07-02T22:04:23.860Z,1.43
2018-07-02T22:06:51.776Z,2.03
2018-07-02T22:09:19.798Z,1.20
2018-07-02T22:11:47.784Z,1.40
2018-07-02T22:14:15.604Z,1.13
2018-07-02T22:16:43.578Z,1.43
2018-07-02T22:19:11.606Z,1.40
2018-07-02T22:21:39.518Z,1.30
2018-07-02T22:24:07.490Z,1.30
2018-07-02T22:26:36.553Z,1.40
2018-07-02T22:29:05.036Z,1.20
2018-07-02T22:31:32.909Z,1.17
2018-07-02T22:34:01.512Z,1.47
2018-07-02T22:36:29.649Z,1.20
2018-07-02T22:38:58.162Z,1.20
2018-07-02T22:41:26.577Z,1.50
2018-07-02T22:43:54.492Z,1.50
2018-07-02T22:46:22.371Z,1.27
2018-07-02T22:48:50.210Z,1.63
2018-07-02T22:51:18.008Z,1.40
2018-07-02T22:53:45.949Z,1.10
2018-07-02T22:56:13.907Z,1.20
2018-07-02T22:58:41.835Z,1.47
2018-07-02T23:01:09.761Z,1.80
2018-07-02T23:03:37.711Z,1.13
2018-07-02T23:06:05.710Z,1.60
2018-07-02T23:08:33.650Z,1.33
2018-07-02T23:11:01.574Z,1.17
2018-07-02T23:13:29.595Z,1.30
2018-07-02T23:16:01.806Z,1.27
2018-07-02T23:18:30.455Z,1.30
2018-07-02T23:20:58.541Z,1.40
2018-07-02T23:23:26.393Z,1.60
2018-07-02T23:25:54.334Z,1.20
2018-07-02T23:28:22.292Z,1.43
2018-07-02T23:30:50.307Z,1.50
2018-07-02T23:33:18.221Z,1.50
2018-07-02T23:35:46.504Z,1.60
2018-07-02T23:38:14.373Z,1.53
2018-07-02T23:40:42.284Z,1.87
2018-07-02T23:43:10.195Z,1.40
2018-07-02T23:45:38.124Z,1.40
2018-07-02T23:48:06.015Z,1.00
2018-07-02T23:50:34.026Z,1.53
2018-07-02T23:53:01.855Z,1.40
2018-07-02T23:55:29.777Z,1.50
2018-07-02T23:57:57.662Z,1.77
